createdAt,value
2023-04-19T00:00:17.502Z,101082.33
2023-04-19T00:02:51.014Z,101089.90
2023-04-19T00:05:03.810Z,101086.29
2023-04-19T00:07:18.079Z,101096.84
2023-04-19T00:09:30.988Z,101104.48
2023-04-19T00:11:44.232Z,101096.95
2023-04-19T00:13:56.914Z,101112.00
2023-04-19T00:16:10.342Z,101119.38
2023-04-19T00:18:23.367Z,101124.30
2023-04-19T00:20:36.233Z,101125.27
2023-04-19T00:22:48.883Z,101140.52
2023-04-19T00:25:01.440Z,101134.88
2023-04-19T00:27:14.184Z,101131.14
2023-04-19T00:29:27.431Z,101128.52
2023-04-19T00:31:40.762Z,101123.10
2023-04-19T00:33:53.708Z,101112.69
2023-04-19T00:36:06.373Z,101109.27
2023-04-19T00:38:18.797Z,101116.80
2023-04-19T00:40:31.513Z,101124.52
2023-04-19T00:42:44.188Z,101125.56
2023-04-19T00:44:57.560Z,101127.23
2023-04-19T00:47:11.392Z,101124.71
2023-04-19T00:49:25.806Z,101124.06
2023-04-19T00:51:39.253Z,101126.65
2023-04-19T00:53:52.929Z,101126.33
2023-04-19T00:56:08.672Z,101118.88
2023-04-19T00:58:21.959Z,101120.09
2023-04-19T01:00:34.813Z,101115.98
2023-04-19T01:02:48.110Z,101114.98
2023-04-19T01:05:01.376Z,101110.77
2023-04-19T01:07:14.572Z,101107.71
2023-04-19T01:09:28.736Z,101111.29
2023-04-19T01:11:43.585Z,101109.59
2023-04-19T01:13:56.736Z,101107.45
2023-04-19T01:16:09.968Z,101102.86
2023-04-19T01:18:23.872Z,101105.11
2023-04-19T01:20:37.276Z,101103.77
2023-04-19T01:22:51.399Z,101098.00
2023-04-19T01:25:05.323Z,101097.27
2023-04-19T01:27:18.708Z,101104.25
2023-04-19T01:29:31.629Z,101120.27
2023-04-19T01:31:44.127Z,101135.09
2023-04-19T01:33:57.022Z,101134.42
2023-04-19T01:36:11.225Z,101141.26
2023-04-19T01:38:24.231Z,101140.20
2023-04-19T01:40:37.441Z,101133.23
2023-04-19T01:42:49.955Z,101130.90
2023-04-19T01:45:03.094Z,101123.69
2023-04-19T01:47:15.686Z,101123.61
2023-04-19T01:49:28.993Z,101115.06
2023-04-19T01:51:42.210Z,101114.82
2023-04-19T01:53:55.740Z,101113.04
2023-04-19T01:56:08.812Z,101110.93
2023-04-19T01:58:23.000Z,101113.29
2023-04-19T02:00:35.578Z,101117.97
2023-04-19T02:02:50.058Z,101126.20
2023-04-19T02:05:03.490Z,101132.37
2023-04-19T02:07:16.111Z,101132.53
2023-04-19T02:09:28.683Z,101135.58
2023-04-19T02:11:41.817Z,101135.59
2023-04-19T02:13:54.810Z,101141.78
2023-04-19T02:16:07.726Z,101134.06
2023-04-19T02:18:20.765Z,101137.73
2023-04-19T02:20:33.446Z,101144.08
2023-04-19T02:22:46.806Z,101146.02
2023-04-19T02:25:00.337Z,101144.61
2023-04-19T02:27:15.349Z,101148.90
2023-04-19T02:29:28.338Z,101142.89
2023-04-19T02:31:42.507Z,101134.91
2023-04-19T02:33:55.552Z,101137.68
2023-04-19T02:36:08.272Z,101136.17
2023-04-19T02:38:21.071Z,101133.63
2023-04-19T02:40:37.566Z,101134.63
2023-04-19T02:42:50.598Z,101133.16
2023-04-19T02:45:03.305Z,101134.73
2023-04-19T02:47:16.334Z,101132.94
2023-04-19T02:49:29.108Z,101125.32
2023-04-19T02:51:42.250Z,101127.02
2023-04-19T02:53:55.720Z,101129.33
2023-04-19T02:56:09.750Z,101129.35
2023-04-19T02:58:22.159Z,101123.60
2023-04-19T03:00:44.133Z,101124.23
2023-04-19T03:03:01.885Z,101128.02
2023-04-19T03:05:16.037Z,101128.66
2023-04-19T03:07:29.224Z,101131.63
2023-04-19T03:09:42.102Z,101136.66
2023-04-19T03:11:54.711Z,101138.52
2023-04-19T03:14:07.877Z,101139.94
2023-04-19T03:16:23.590Z,101141.98
2023-04-19T03:18:37.279Z,101139.52
2023-04-19T03:20:50.232Z,101141.25
2023-04-19T03:23:03.597Z,101138.75
2023-04-19T03:25:18.623Z,101137.09
2023-04-19T03:27:36.712Z,101141.73
2023-04-19T03:29:53.978Z,101143.30
2023-04-19T03:32:07.859Z,101140.73
2023-04-19T03:34:20.599Z,101144.68
2023-04-19T03:36:34.095Z,101143.46
2023-04-19T03:38:47.423Z,101146.21
2023-04-19T03:41:04.794Z,101147.34
2023-04-19T03:43:20.708Z,101146.83
2023-04-19T03:45:34.176Z,101150.13
2023-04-19T03:47:47.245Z,101150.95
2023-04-19T03:50:02.194Z,101145.48
2023-04-19T03:52:15.967Z,101141.92
2023-04-19T03:54:28.836Z,101145.13
2023-04-19T03:56:42.385Z,101155.10
2023-04-19T03:58:56.723Z,101158.77
2023-04-19T04:01:10.078Z,101159.84
2023-04-19T04:03:23.087Z,101161.02
2023-04-19T04:05:36.344Z,101161.41
2023-04-19T04:07:48.857Z,101162.98
2023-04-19T04:10:01.693Z,101165.41
2023-04-19T04:12:16.323Z,101165.89
2023-04-19T04:14:30.026Z,101167.33
2023-04-19T04:16:42.977Z,101173.23
2023-04-19T04:18:56.321Z,101169.89
2023-04-19T04:21:11.405Z,101178.15
2023-04-19T04:23:26.920Z,101175.56
2023-04-19T04:25:40.420Z,101175.95
2023-04-19T04:27:57.473Z,101176.64
2023-04-19T04:30:12.278Z,101180.86
2023-04-19T04:32:25.221Z,101178.73
2023-04-19T04:34:41.884Z,101176.21
2023-04-19T04:36:57.921Z,101178.24
2023-04-19T04:39:13.050Z,101177.29
2023-04-19T04:41:28.304Z,101183.83
2023-04-19T04:43:41.368Z,101183.29
2023-04-19T04:45:56.776Z,101187.84
2023-04-19T04:48:10.868Z,101186.16
2023-04-19T04:50:23.632Z,101188.20
2023-04-19T04:52:36.556Z,101185.38
2023-04-19T04:54:56.148Z,101185.09
2023-04-19T04:57:13.381Z,101191.73
2023-04-19T04:59:27.215Z,101184.91
2023-04-19T05:01:40.033Z,101192.55
2023-04-19T05:03:53.132Z,101190.56
2023-04-19T05:06:06.375Z,101186.08
2023-04-19T05:08:19.191Z,101185.59
2023-04-19T05:10:33.553Z,101174.39
2023-04-19T05:12:47.281Z,101174.63
2023-04-19T05:15:03.464Z,101173.46
2023-04-19T05:17:16.339Z,101178.20
2023-04-19T05:19:29.259Z,101180.88
2023-04-19T05:21:46.222Z,101180.64
2023-04-19T05:24:00.170Z,101185.00
2023-04-19T05:26:16.062Z,101182.91
2023-04-19T05:28:29.415Z,101184.61
2023-04-19T05:30:55.937Z,101186.30
2023-04-19T05:33:09.385Z,101184.39
2023-04-19T05:35:22.611Z,101193.10
2023-04-19T05:37:37.706Z,101190.31
2023-04-19T05:39:50.615Z,101192.16
2023-04-19T05:42:04.797Z,101195.56
2023-04-19T05:44:17.963Z,101196.17
2023-04-19T05:46:31.083Z,101200.68
2023-04-19T05:48:44.776Z,101201.80
2023-04-19T05:51:20.055Z,101196.41
2023-04-19T05:53:42.205Z,101196.09
2023-04-19T05:55:55.009Z,101189.75
2023-04-19T05:58:08.277Z,101191.75
2023-04-19T06:00:22.783Z,101190.02
2023-04-19T06:02:40.421Z,101194.33
2023-04-19T06:04:53.366Z,101186.23
2023-04-19T06:07:10.580Z,101184.94
2023-04-19T06:09:30.752Z,101181.50
2023-04-19T06:11:50.875Z,101183.64
2023-04-19T06:14:04.162Z,101181.64
2023-04-19T06:16:17.101Z,101179.40
2023-04-19T06:18:30.030Z,101178.57
2023-04-19T06:20:43.225Z,101178.73
2023-04-19T06:22:55.720Z,101185.35
2023-04-19T06:25:10.994Z,101179.55
2023-04-19T06:27:23.476Z,101181.39
2023-04-19T06:29:36.285Z,101183.00
2023-04-19T06:31:49.191Z,101184.40
2023-04-19T06:34:02.301Z,101185.38
2023-04-19T06:36:15.678Z,101183.56
2023-04-19T06:38:28.278Z,101188.65
2023-04-19T06:40:40.624Z,101186.51
2023-04-19T06:42:53.521Z,101185.11
2023-04-19T06:45:06.343Z,101186.19
2023-04-19T06:47:19.164Z,101187.25
2023-04-19T06:49:32.231Z,101188.05
2023-04-19T06:51:45.339Z,101187.34
2023-04-19T06:53:58.318Z,101190.16
2023-04-19T06:56:11.721Z,101190.55
2023-04-19T06:58:24.135Z,101191.73
2023-04-19T07:00:37.082Z,101192.18
2023-04-19T07:02:50.065Z,101195.03
2023-04-19T07:05:03.306Z,101197.97
2023-04-19T07:07:15.741Z,101197.07
2023-04-19T07:09:28.728Z,101198.26
2023-04-19T07:11:41.686Z,101203.77
2023-04-19T07:13:54.316Z,101204.66
2023-04-19T07:16:10.362Z,101203.65
2023-04-19T07:18:23.230Z,101209.95
2023-04-19T07:20:36.133Z,101203.98
2023-04-19T07:22:49.168Z,101205.35
2023-04-19T07:25:02.019Z,101204.96
2023-04-19T07:27:15.504Z,101208.77
2023-04-19T07:29:28.394Z,101209.75
2023-04-19T07:31:42.985Z,101205.46
2023-04-19T07:33:55.889Z,101210.52
2023-04-19T07:36:09.911Z,101217.08
2023-04-19T07:38:22.652Z,101218.35
2023-04-19T07:40:35.261Z,101213.95
2023-04-19T07:42:48.792Z,101214.38
2023-04-19T07:45:01.406Z,101217.06
2023-04-19T07:47:13.910Z,101218.46
2023-04-19T07:49:26.392Z,101210.66
2023-04-19T07:51:39.190Z,101210.11
2023-04-19T07:53:53.440Z,101214.17
2023-04-19T07:56:06.630Z,101217.89
2023-04-19T07:58:19.167Z,101214.81
2023-04-19T08:00:35.855Z,101217.26
2023-04-19T08:02:48.954Z,101216.61
2023-04-19T08:05:03.417Z,101213.83
2023-04-19T08:07:16.113Z,101216.55
2023-04-19T08:09:28.725Z,101215.42
2023-04-19T08:11:41.759Z,101215.73
2023-04-19T08:14:06.736Z,101215.46
2023-04-19T08:17:06.374Z,101215.55
2023-04-19T08:18:59.823Z,101215.88
2023-04-19T08:21:13.554Z,101212.80
2023-04-19T08:23:31.793Z,101212.84
2023-04-19T08:25:50.708Z,101215.10
2023-04-19T08:28:03.456Z,101214.63
2023-04-19T08:30:19.053Z,101218.63
2023-04-19T08:32:32.342Z,101218.72
2023-04-19T08:34:45.761Z,101214.02
2023-04-19T08:37:03.856Z,101210.88
2023-04-19T08:39:29.107Z,101214.62
2023-04-19T08:41:48.188Z,101210.33
2023-04-19T08:44:05.190Z,101208.41
2023-04-19T08:46:18.194Z,101204.90
2023-04-19T08:48:31.837Z,101207.42
2023-04-19T08:51:01.222Z,101197.54
2023-04-19T08:53:25.017Z,101197.01
2023-04-19T08:55:40.902Z,101193.71
2023-04-19T08:57:58.135Z,101195.86
2023-04-19T09:00:12.500Z,101194.75
2023-04-19T09:02:25.578Z,101196.59
2023-04-19T09:04:38.963Z,101196.86
2023-04-19T09:06:51.735Z,101194.23
2023-04-19T09:09:33.963Z,101199.88
2023-04-19T09:11:48.837Z,101200.98
2023-04-19T09:14:14.104Z,101202.84
2023-04-19T09:16:33.068Z,101204.70
2023-04-19T09:19:23.331Z,101201.76
2023-04-19T09:21:39.156Z,101203.94
2023-04-19T09:23:54.530Z,101203.35
2023-04-19T09:26:22.855Z,101204.08
2023-04-19T09:28:36.412Z,101201.70
2023-04-19T09:31:00.591Z,101201.48
2023-04-19T09:33:26.439Z,101202.38
2023-04-19T09:35:49.589Z,101207.45
2023-04-19T09:38:11.822Z,101210.84
2023-04-19T09:40:28.964Z,101207.63
2023-04-19T09:47:33.909Z,101215.53
2023-04-19T09:49:49.370Z,101216.56
2023-04-19T09:52:03.083Z,101211.18
2023-04-19T09:54:16.498Z,101213.67
2023-04-19T09:56:29.280Z,101215.20
2023-04-19T09:58:49.626Z,101212.98
2023-04-19T10:04:20.177Z,101210.45
2023-04-19T10:06:58.395Z,101219.06
2023-04-19T10:09:11.906Z,101215.52
2023-04-19T10:11:26.327Z,101216.40
2023-04-19T10:13:40.451Z,101219.35
2023-04-19T10:15:59.151Z,101223.38
2023-04-19T10:18:18.042Z,101221.30
2023-04-19T10:20:37.498Z,101220.94
2023-04-19T10:22:50.502Z,101227.12
2023-04-19T10:25:20.243Z,101228.90
2023-04-19T10:27:33.024Z,101230.19
2023-04-19T10:30:09.107Z,101228.59
2023-04-19T10:32:21.893Z,101224.09
2023-04-19T10:34:45.674Z,101226.20
2023-04-19T10:37:00.815Z,101229.10
2023-04-19T10:39:45.762Z,101234.04
2023-04-19T10:42:14.304Z,101242.61
2023-04-19T10:44:28.196Z,101239.11
2023-04-19T10:46:46.534Z,101242.54
2023-04-19T10:49:00.866Z,101243.91
2023-04-19T10:51:20.581Z,101245.85
2023-04-19T10:53:52.735Z,101247.04
2023-04-19T10:56:05.990Z,101249.18
2023-04-19T10:58:18.718Z,101254.71
2023-04-19T11:00:33.512Z,101254.70
2023-04-19T11:02:46.808Z,101258.02
2023-04-19T11:05:06.801Z,101262.05
2023-04-19T11:07:22.378Z,101264.77
2023-04-19T11:09:36.249Z,101266.71
2023-04-19T11:11:49.024Z,101266.10
2023-04-19T11:14:03.548Z,101270.17
2023-04-19T11:16:19.310Z,101273.35
2023-04-19T11:18:37.026Z,101271.45
2023-04-19T11:20:56.052Z,101271.97
2023-04-19T11:23:18.903Z,101276.61
2023-04-19T11:25:32.743Z,101282.20
2023-04-19T11:27:46.920Z,101280.42
2023-04-19T11:30:08.692Z,101283.59
2023-04-19T11:32:22.027Z,101283.88
2023-04-19T11:34:38.406Z,101291.52
2023-04-19T11:37:00.034Z,101283.44
2023-04-19T11:39:13.117Z,101282.75
2023-04-19T11:41:25.998Z,101284.73
2023-04-19T11:43:42.610Z,101287.96
2023-04-19T11:45:55.334Z,101286.84
2023-04-19T11:48:10.270Z,101286.36
2023-04-19T11:50:40.221Z,101286.21
2023-04-19T11:52:55.098Z,101288.60
2023-04-19T11:55:24.160Z,101284.33
2023-04-19T11:57:38.980Z,101288.48
2023-04-19T12:00:13.224Z,101294.50
2023-04-19T12:02:26.038Z,101298.98
2023-04-19T12:04:39.858Z,101298.86
2023-04-19T12:07:03.400Z,101299.55
2023-04-19T12:09:24.391Z,101308.77
2023-04-19T12:11:51.374Z,101310.45
2023-04-19T12:14:17.026Z,101310.77
2023-04-19T12:16:35.580Z,101314.27
2023-04-19T12:18:52.664Z,101316.50
2023-04-19T12:21:07.605Z,101319.58
2023-04-19T12:23:20.944Z,101326.17
2023-04-19T12:25:37.346Z,101322.98
2023-04-19T12:27:50.013Z,101325.65
2023-04-19T12:30:06.567Z,101327.40
2023-04-19T12:32:19.370Z,101333.77
2023-04-19T12:34:32.690Z,101337.65
2023-04-19T12:36:45.594Z,101347.83
2023-04-19T12:39:01.256Z,101346.40
2023-04-19T12:41:14.044Z,101340.23
2023-04-19T12:43:27.014Z,101350.70
2023-04-19T12:45:40.060Z,101356.34
2023-04-19T12:47:53.364Z,101359.41
2023-04-19T12:50:09.856Z,101367.95
2023-04-19T12:52:22.745Z,101370.46
2023-04-19T12:54:36.554Z,101369.17
2023-04-19T12:56:49.333Z,101368.89
2023-04-19T12:59:02.829Z,101370.93
2023-04-19T13:01:15.866Z,101375.45
2023-04-19T13:03:34.024Z,101382.84
2023-04-19T13:05:47.428Z,101385.60
2023-04-19T13:07:59.781Z,101386.42
2023-04-19T13:10:14.578Z,101390.88
2023-04-19T13:12:27.530Z,101388.52
2023-04-19T13:14:40.398Z,101394.02
2023-04-19T13:16:53.048Z,101395.83
2023-04-19T13:19:05.867Z,101398.69
2023-04-19T13:21:19.153Z,101403.18
2023-04-19T13:23:32.037Z,101405.43
2023-04-19T13:25:44.920Z,101407.48
2023-04-19T13:27:57.426Z,101416.40
2023-04-19T13:30:14.237Z,101419.52
2023-04-19T13:32:26.944Z,101421.47
2023-04-19T13:34:43.203Z,101425.77
2023-04-19T13:36:55.796Z,101425.59
2023-04-19T13:39:08.735Z,101427.83
2023-04-19T13:41:21.446Z,101427.69
2023-04-19T13:43:34.263Z,101427.62
2023-04-19T13:45:47.168Z,101428.59
2023-04-19T13:48:00.289Z,101430.31
2023-04-19T13:50:16.192Z,101428.33
2023-04-19T13:52:29.663Z,101432.08
2023-04-19T13:54:42.200Z,101433.88
2023-04-19T13:56:54.915Z,101434.02
2023-04-19T13:59:08.328Z,101442.84
2023-04-19T14:01:24.109Z,101450.32
2023-04-19T14:03:37.708Z,101452.14
2023-04-19T14:05:50.701Z,101455.81
2023-04-19T14:08:03.916Z,101457.81
2023-04-19T14:10:17.509Z,101460.40
2023-04-19T14:12:30.178Z,101462.61
2023-04-19T14:14:42.725Z,101468.71
2023-04-19T14:16:55.378Z,101474.71
2023-04-19T14:19:08.317Z,101474.10
2023-04-19T14:21:21.522Z,101476.36
2023-04-19T14:23:35.881Z,101475.96
2023-04-19T14:25:48.364Z,101473.56
2023-04-19T14:28:02.506Z,101474.75
2023-04-19T14:30:18.403Z,101477.72
2023-04-19T14:32:31.370Z,101481.45
2023-04-19T14:34:43.955Z,101480.14
2023-04-19T14:36:56.533Z,101479.70
2023-04-19T14:39:09.652Z,101481.31
2023-04-19T14:41:22.548Z,101488.09
2023-04-19T14:43:35.609Z,101489.52
2023-04-19T14:45:48.491Z,101496.90
2023-04-19T14:48:01.331Z,101502.14
2023-04-19T14:50:14.798Z,101508.48
2023-04-19T14:52:27.573Z,101512.07
2023-04-19T14:54:41.450Z,101511.41
2023-04-19T14:56:54.778Z,101514.41
2023-04-19T14:59:08.151Z,101517.59
2023-04-19T15:01:23.286Z,101520.98
2023-04-19T15:03:36.640Z,101523.37
2023-04-19T15:05:49.495Z,101525.66
2023-04-19T15:08:02.289Z,101526.41
2023-04-19T15:10:15.836Z,101534.14
2023-04-19T15:12:28.348Z,101530.61
2023-04-19T15:14:41.502Z,101531.48
2023-04-19T15:16:54.025Z,101540.05
2023-04-19T15:19:08.407Z,101541.73
2023-04-19T15:21:24.152Z,101544.23
2023-04-19T15:23:37.688Z,101549.67
2023-04-19T15:25:50.914Z,101554.91
2023-04-19T15:28:03.898Z,101556.45
2023-04-19T15:30:18.985Z,101559.60
2023-04-19T15:32:35.324Z,101556.72
2023-04-19T15:34:47.950Z,101564.26
2023-04-19T15:37:00.507Z,101564.88
2023-04-19T15:39:13.314Z,101569.07
2023-04-19T15:41:25.910Z,101570.31
2023-04-19T15:43:38.648Z,101572.55
2023-04-19T15:45:51.350Z,101573.23
2023-04-19T15:48:04.322Z,101578.11
2023-04-19T15:50:17.574Z,101574.59
2023-04-19T15:52:29.988Z,101575.94
2023-04-19T15:54:42.518Z,101577.81
2023-04-19T15:56:55.690Z,101585.96
2023-04-19T15:59:08.484Z,101588.64
2023-04-19T16:01:20.951Z,101586.33
2023-04-19T16:03:33.850Z,101598.02
2023-04-19T16:05:46.602Z,101597.52
2023-04-19T16:08:09.338Z,101599.92
2023-04-19T16:10:22.052Z,101590.93
2023-04-19T16:12:35.143Z,101602.71
2023-04-19T16:14:47.669Z,101607.98
2023-04-19T16:17:01.199Z,101607.22
2023-04-19T16:19:14.922Z,101616.54
2023-04-19T16:21:29.814Z,101617.77
2023-04-19T16:23:43.207Z,101618.27
2023-04-19T16:25:56.813Z,101611.67
2023-04-19T16:28:10.394Z,101611.30
2023-04-19T16:30:24.538Z,101614.56
2023-04-19T16:32:37.321Z,101624.32
2023-04-19T16:34:49.863Z,101625.95
2023-04-19T16:37:02.638Z,101628.45
2023-04-19T16:39:16.952Z,101632.86
2023-04-19T16:41:29.862Z,101630.18
2023-04-19T16:43:42.708Z,101632.55
2023-04-19T16:45:55.398Z,101636.23
2023-04-19T16:48:08.214Z,101632.78
2023-04-19T16:50:21.578Z,101633.70
2023-04-19T16:52:35.115Z,101634.13
2023-04-19T16:54:48.041Z,101632.66
2023-04-19T16:57:00.640Z,101637.73
2023-04-19T16:59:13.655Z,101639.48
2023-04-19T17:01:26.612Z,101642.73
2023-04-19T17:03:39.470Z,101643.81
2023-04-19T17:05:52.395Z,101647.49
2023-04-19T17:08:05.891Z,101651.98
2023-04-19T17:10:18.439Z,101651.48
2023-04-19T17:12:31.312Z,101658.60
2023-04-19T17:14:44.628Z,101659.64
2023-04-19T17:16:57.193Z,101659.63
2023-04-19T17:19:10.026Z,101658.94
2023-04-19T17:21:23.566Z,101666.65
2023-04-19T17:23:36.442Z,101665.77
2023-04-19T17:25:49.095Z,101675.52
2023-04-19T17:28:01.704Z,101673.41
2023-04-19T17:30:17.875Z,101683.08
2023-04-19T17:32:31.446Z,101683.92
2023-04-19T17:34:44.048Z,101687.14
2023-04-19T17:36:56.572Z,101692.79
2023-04-19T17:39:09.576Z,101696.38
2023-04-19T17:41:22.238Z,101700.33
2023-04-19T17:43:34.845Z,101704.98
2023-04-19T17:45:47.457Z,101709.84
2023-04-19T17:47:59.852Z,101717.46
2023-04-19T17:50:15.890Z,101722.70
2023-04-19T17:52:28.547Z,101723.37
2023-04-19T17:54:41.276Z,101726.38
2023-04-19T17:56:53.881Z,101729.96
2023-04-19T17:59:06.926Z,101730.49
2023-04-19T18:01:20.390Z,101734.48
2023-04-19T18:03:33.784Z,101729.83
2023-04-19T18:05:46.899Z,101737.65
2023-04-19T18:07:59.407Z,101739.17
2023-04-19T18:10:13.314Z,101743.43
2023-04-19T18:12:26.389Z,101744.16
2023-04-19T18:14:40.662Z,101744.93
2023-04-19T18:16:53.211Z,101748.49
2023-04-19T18:19:05.868Z,101752.30
2023-04-19T18:21:19.511Z,101754.48
2023-04-19T18:23:33.144Z,101757.20
2023-04-19T18:25:46.067Z,101760.21
2023-04-19T18:27:58.626Z,101757.86
2023-04-19T18:30:13.357Z,101758.88
2023-04-19T18:32:29.628Z,101752.80
2023-04-19T18:34:43.006Z,101754.47
2023-04-19T18:36:58.120Z,101755.11
2023-04-19T18:39:11.060Z,101762.73
2023-04-19T18:41:23.990Z,101766.92
2023-04-19T18:43:36.691Z,101765.45
2023-04-19T18:45:56.093Z,101765.77
2023-04-19T18:48:09.717Z,101774.14
2023-04-19T18:50:22.490Z,101771.38
2023-04-19T18:52:35.631Z,101772.73
2023-04-19T18:54:48.607Z,101772.32
2023-04-19T18:59:17.056Z,101773.30
2023-04-19T19:01:29.998Z,101772.42
2023-04-19T19:05:58.966Z,101772.04
2023-04-19T19:08:12.058Z,101771.85
2023-04-19T19:12:39.187Z,101771.04
2023-04-19T19:14:51.593Z,101769.75
2023-04-19T19:17:06.006Z,101774.09
2023-04-19T19:19:19.004Z,101775.83
2023-04-19T19:21:31.410Z,101778.53
2023-04-19T19:23:44.869Z,101783.26
2023-04-19T19:25:58.173Z,101784.70
2023-04-19T19:28:11.243Z,101779.67
2023-04-19T19:30:24.672Z,101783.39
2023-04-19T19:32:37.669Z,101786.05
2023-04-19T19:34:56.519Z,101788.39
2023-04-19T19:37:17.887Z,101786.58
2023-04-19T19:39:30.671Z,101788.63
2023-04-19T19:44:01.277Z,101789.94
2023-04-19T19:46:14.213Z,101792.13
2023-04-19T19:48:29.562Z,101790.34
2023-04-19T19:52:58.465Z,101800.82
2023-04-19T19:55:13.461Z,101804.05
2023-04-19T19:59:50.404Z,101812.17
2023-04-19T20:02:05.674Z,101808.61
2023-04-19T20:04:18.696Z,101806.11
2023-04-19T20:08:48.503Z,101806.70
2023-04-19T20:11:01.212Z,101807.59
2023-04-19T20:13:14.151Z,101810.55
2023-04-19T20:15:27.443Z,101813.40
2023-04-19T20:17:41.625Z,101814.09
2023-04-19T20:19:55.702Z,101816.90
2023-04-19T20:22:08.986Z,101827.91
2023-04-19T20:24:22.621Z,101845.05
2023-04-19T20:26:35.644Z,101850.64
2023-04-19T20:28:48.737Z,101852.11
2023-04-19T20:31:01.256Z,101856.39
2023-04-19T20:33:14.399Z,101852.19
2023-04-19T20:35:26.908Z,101849.73
2023-04-19T20:37:40.813Z,101851.70
2023-04-19T20:39:55.084Z,101853.25
2023-04-19T20:42:08.960Z,101855.98
2023-04-19T20:44:32.320Z,101857.49
2023-04-19T20:46:45.100Z,101859.23
2023-04-19T20:48:57.593Z,101861.98
2023-04-19T20:51:10.370Z,101866.90
2023-04-19T20:53:23.064Z,101868.27
2023-04-19T20:55:35.535Z,101869.11
2023-04-19T20:57:48.304Z,101868.54
2023-04-19T21:00:01.355Z,101865.10
2023-04-19T21:02:14.419Z,101865.70
2023-04-19T21:04:30.207Z,101868.70
2023-04-19T21:06:43.125Z,101870.79
2023-04-19T21:09:08.377Z,101870.86
2023-04-19T21:11:21.301Z,101875.31
2023-04-19T21:13:34.914Z,101880.84
2023-04-19T21:15:47.955Z,101880.23
2023-04-19T21:18:00.622Z,101879.17
2023-04-19T21:20:19.245Z,101885.50
2023-04-19T21:22:45.357Z,101886.69
2023-04-19T21:24:58.307Z,101888.61
2023-04-19T21:27:11.307Z,101893.76
2023-04-19T21:29:26.216Z,101895.39
2023-04-19T21:31:38.793Z,101894.04
2023-04-19T21:33:51.316Z,101898.67
2023-04-19T21:36:03.753Z,101897.62
2023-04-19T21:38:16.211Z,101899.71
2023-04-19T21:40:29.943Z,101891.10
2023-04-19T21:42:45.453Z,101892.69
2023-04-19T21:44:57.912Z,101895.46
2023-04-19T21:47:10.822Z,101895.01
2023-04-19T21:49:23.380Z,101899.08
2023-04-19T21:51:35.928Z,101898.94
2023-04-19T21:53:49.183Z,101901.38
2023-04-19T21:56:02.945Z,101901.36
2023-04-19T21:58:15.594Z,101902.28
2023-04-19T22:00:28.216Z,101907.43
2023-04-19T22:02:41.040Z,101907.15
2023-04-19T22:04:54.905Z,101909.60
2023-04-19T22:07:08.909Z,101914.66
2023-04-19T22:09:21.352Z,101913.06
2023-04-19T22:11:34.917Z,101917.02
2023-04-19T22:13:48.265Z,101916.89
2023-04-19T22:16:03.850Z,101919.67
2023-04-19T22:18:16.948Z,101919.84
2023-04-19T22:20:30.357Z,101921.71
2023-04-19T22:22:45.048Z,101916.53
2023-04-19T22:24:58.497Z,101922.83
2023-04-19T22:27:11.344Z,101926.31
2023-04-19T22:29:24.490Z,101942.52
2023-04-19T22:31:37.330Z,101937.31
2023-04-19T22:33:50.895Z,101938.09
2023-04-19T22:36:03.350Z,101944.32
2023-04-19T22:38:16.236Z,101940.71
2023-04-19T22:40:29.015Z,101943.71
2023-04-19T22:42:42.187Z,101960.77
2023-04-19T22:44:55.110Z,101982.09
2023-04-19T22:47:07.867Z,101991.98
2023-04-19T22:49:23.190Z,101993.45
2023-04-19T22:51:35.767Z,101996.45
2023-04-19T22:53:48.825Z,101991.44
2023-04-19T22:56:01.418Z,101988.10
2023-04-19T22:58:14.848Z,101983.48
2023-04-19T23:00:27.713Z,101981.63
2023-04-19T23:02:41.602Z,101985.34
2023-04-19T23:04:54.473Z,101979.00
2023-04-19T23:07:07.417Z,101981.05
2023-04-19T23:09:20.614Z,101974.90
2023-04-19T23:11:33.502Z,101970.71
2023-04-19T23:13:48.493Z,101966.52
2023-04-19T23:16:01.325Z,101963.09
2023-04-19T23:18:14.070Z,101959.34
2023-04-19T23:20:27.445Z,101957.58
2023-04-19T23:22:43.045Z,101959.23
2023-04-19T23:24:55.465Z,101965.67
2023-04-19T23:27:11.496Z,101968.98
2023-04-19T23:29:23.824Z,101966.65
2023-04-19T23:31:36.894Z,101970.84
2023-04-19T23:33:49.740Z,101969.46
2023-04-19T23:36:02.418Z,101969.77
2023-04-19T23:38:15.112Z,101966.12
2023-04-19T23:40:27.785Z,101966.92
2023-04-19T23:42:41.122Z,101967.13
2023-04-19T23:44:55.433Z,101966.84
2023-04-19T23:47:08.531Z,101970.59
2023-04-19T23:49:21.215Z,101972.30
2023-04-19T23:51:34.264Z,101973.01
2023-04-19T23:53:47.228Z,101976.09
2023-04-19T23:55:59.698Z,101975.25
2023-04-19T23:58:12.621Z,101977.32
